Time;durP1;ratioP1;P1;durP2;ratioP2;P2;SDS_P1;SDS_P2;PMS_P1;PMS_P2;Temp;Humidity;BMP_temperature;BMP_pressure;BME280_temperature;BME280_humidity;BME280_pressure;Samples;Min_cycle;Max_cycle;Signal;HPM_P1;HPM_P2
2020/12/18 00:02:19;;;;;;;37.42;23.20;;;4.00;99.90;;;;;;5034653;28;20026;-70
2020/12/18 00:04:46;;;;;;;40.70;24.38;;;3.90;99.90;;;;;;5033816;28;20028;-70
2020/12/18 00:07:12;;;;;;;38.92;23.50;;;3.90;99.90;;;;;;5034645;28;20110;-71
2020/12/18 00:09:38;;;;;;;46.60;23.33;;;3.90;99.90;;;;;;5034732;28;20638;-72
2020/12/18 00:12:04;;;;;;;36.88;23.08;;;3.90;99.90;;;;;;5034450;28;20495;-69
2020/12/18 00:14:30;;;;;;;44.53;24.83;;;3.80;99.90;;;;;;5033887;28;20029;-70
2020/12/18 00:16:56;;;;;;;34.08;22.27;;;3.80;99.90;;;;;;5034492;28;20027;-69
2020/12/18 00:19:22;;;;;;;42.83;23.65;;;3.80;99.90;;;;;;5035067;28;20021;-69
2020/12/18 00:21:47;;;;;;;43.72;25.02;;;3.70;99.90;;;;;;5052185;28;20040;-70
2020/12/18 00:24:13;;;;;;;36.72;24.63;;;3.70;99.90;;;;;;5035813;28;20491;-71
2020/12/18 00:26:39;;;;;;;38.30;24.45;;;3.70;99.90;;;;;;5035148;28;20488;-69
2020/12/18 00:29:04;;;;;;;35.92;24.38;;;3.70;99.90;;;;;;5038923;28;20160;-69
2020/12/18 00:31:30;;;;;;;36.60;23.98;;;3.70;99.90;;;;;;5035047;28;20108;-71
2020/12/18 00:33:56;;;;;;;37.78;23.85;;;3.70;99.90;;;;;;5034623;28;20030;-70
2020/12/18 00:36:21;;;;;;;39.30;23.85;;;3.70;99.90;;;;;;5035508;28;20057;-70
2020/12/18 00:38:47;;;;;;;35.28;21.27;;;3.70;99.90;;;;;;5036505;28;20017;-71
2020/12/18 00:41:13;;;;;;;41.28;24.42;;;3.70;99.90;;;;;;5035088;28;20055;-70
2020/12/18 00:43:39;;;;;;;37.63;23.85;;;3.70;99.90;;;;;;5034630;28;20594;-70
2020/12/18 00:46:05;;;;;;;39.35;22.15;;;3.70;99.90;;;;;;5036921;28;20037;-70
2020/12/18 00:48:31;;;;;;;33.80;20.88;;;3.70;99.90;;;;;;5036399;28;20030;-70
2020/12/18 00:50:57;;;;;;;39.00;23.55;;;3.60;99.90;;;;;;5034536;28;20036;-69
2020/12/18 00:53:22;;;;;;;43.25;26.38;;;3.60;99.90;;;;;;5033196;28;20047;-70
2020/12/18 00:55:49;;;;;;;47.97;28.13;;;3.60;99.90;;;;;;5034563;28;20674;-70
2020/12/18 00:58:14;;;;;;;40.70;25.50;;;3.60;99.90;;;;;;5034301;28;20095;-70
2020/12/18 01:00:40;;;;;;;37.38;24.15;;;3.50;99.90;;;;;;5033934;28;20022;-71
2020/12/18 01:03:06;;;;;;;35.45;23.83;;;3.50;99.90;;;;;;5033271;28;20147;-71
2020/12/18 01:05:31;;;;;;;36.08;24.02;;;3.40;99.90;;;;;;5033863;28;20025;-69
2020/12/18 01:07:57;;;;;;;41.10;22.52;;;3.40;99.90;;;;;;5034104;28;20095;-69
2020/12/18 01:10:22;;;;;;;58.47;21.52;;;3.30;99.90;;;;;;5033800;28;20052;-69
2020/12/18 01:12:49;;;;;;;33.75;20.42;;;3.30;99.90;;;;;;5032902;28;20032;-68
2020/12/18 01:15:16;;;;;;;43.45;23.90;;;3.20;99.90;;;;;;5033766;28;20029;-69
2020/12/18 01:17:41;;;;;;;76.40;26.92;;;3.20;99.90;;;;;;5034119;28;20113;-70
2020/12/18 01:20:07;;;;;;;113.38;29.90;;;3.20;99.90;;;;;;5033433;28;20068;-70
2020/12/18 01:22:33;;;;;;;61.90;29.77;;;3.30;99.90;;;;;;5033909;28;20034;-71
2020/12/18 01:24:58;;;;;;;47.33;26.50;;;3.30;99.90;;;;;;5032886;28;20026;-70
2020/12/18 01:27:24;;;;;;;46.42;26.17;;;3.20;99.90;;;;;;5033264;28;20112;-71
2020/12/18 01:29:49;;;;;;;59.58;30.65;;;3.20;99.90;;;;;;5032902;28;20031;-70
2020/12/18 01:32:15;;;;;;;74.03;29.23;;;3.20;99.90;;;;;;5032842;28;20102;-71
2020/12/18 01:34:43;;;;;;;107.90;32.35;;;3.30;99.90;;;;;;5031862;28;20185;-71
2020/12/18 01:37:10;;;;;;;40.85;26.20;;;3.30;99.90;;;;;;5032584;28;20021;-70
2020/12/18 01:39:36;;;;;;;41.28;26.50;;;3.30;99.90;;;;;;5032754;28;20054;-69
2020/12/18 01:42:02;;;;;;;44.28;26.55;;;3.20;99.90;;;;;;5032560;28;20530;-69
2020/12/18 01:44:28;;;;;;;45.17;27.00;;;3.20;99.90;;;;;;5032267;28;20033;-70
2020/12/18 01:46:54;;;;;;;35.20;25.80;;;3.20;99.90;;;;;;5032803;28;20087;-71
2020/12/18 01:49:20;;;;;;;41.92;26.08;;;3.20;99.90;;;;;;5033106;28;20029;-70
2020/12/18 01:51:48;;;;;;;52.80;28.50;;;3.20;99.90;;;;;;5032236;28;20139;-70
2020/12/18 01:54:16;;;;;;;39.60;25.67;;;3.30;99.90;;;;;;5031691;28;20113;-71
2020/12/18 01:56:42;;;;;;;41.40;25.48;;;3.30;99.90;;;;;;5032384;28;20498;-70
2020/12/18 01:59:08;;;;;;;58.50;27.20;;;3.20;99.90;;;;;;5031252;28;20025;-69
2020/12/18 02:01:34;;;;;;;45.08;25.88;;;3.30;99.90;;;;;;5032566;28;20112;-69
2020/12/18 02:04:01;;;;;;;44.75;24.13;;;3.30;99.90;;;;;;5031505;28;20105;-71
2020/12/18 02:06:31;;;;;;;47.55;25.85;;;3.20;99.90;;;;;;5031529;28;20033;-71
2020/12/18 02:08:57;;;;;;;36.08;22.80;;;3.30;99.90;;;;;;5032297;28;20029;-70
2020/12/18 02:11:23;;;;;;;37.33;23.65;;;3.30;99.90;;;;;;5032289;28;20391;-71
2020/12/18 02:13:53;;;;;;;41.72;25.25;;;3.30;99.90;;;;;;5031606;28;20021;-70
2020/12/18 02:16:19;;;;;;;34.40;21.98;;;3.30;99.90;;;;;;5030532;28;20048;-71
2020/12/18 02:18:48;;;;;;;31.70;21.40;;;3.20;99.90;;;;;;5031930;28;20032;-72
2020/12/18 02:21:14;;;;;;;29.70;21.27;;;3.20;99.90;;;;;;5031962;28;20365;-71
2020/12/18 02:23:44;;;;;;;31.40;20.95;;;3.30;99.90;;;;;;5031379;28;20104;-70
2020/12/18 02:26:12;;;;;;;32.30;20.20;;;3.40;99.90;;;;;;5031761;28;20532;-70
2020/12/18 02:28:39;;;;;;;27.52;20.20;;;3.40;99.90;;;;;;5032017;28;20511;-69
2020/12/18 02:31:06;;;;;;;27.13;19.15;;;3.50;99.90;;;;;;5032049;28;20029;-71
2020/12/18 02:33:32;;;;;;;28.85;20.20;;;3.50;99.90;;;;;;5030815;28;20033;-72
2020/12/18 02:35:59;;;;;;;30.65;20.75;;;3.50;99.90;;;;;;5030579;28;20080;-70
2020/12/18 02:38:25;;;;;;;27.30;19.38;;;3.50;99.90;;;;;;5035300;28;20026;-70
2020/12/18 02:40:51;;;;;;;27.27;19.77;;;3.50;99.90;;;;;;5034459;28;20100;-70
2020/12/18 02:43:17;;;;;;;28.55;20.25;;;3.50;99.90;;;;;;5034354;28;20033;-72
2020/12/18 02:45:43;;;;;;;31.33;20.20;;;3.50;99.90;;;;;;5033293;28;20026;-72
2020/12/18 02:48:09;;;;;;;27.98;19.65;;;3.50;99.90;;;;;;5032188;28;20021;-71
2020/12/18 02:50:35;;;;;;;26.48;19.55;;;3.50;99.90;;;;;;5032462;28;20022;-70
2020/12/18 02:53:12;;;;;;;28.73;19.67;;;3.50;99.90;;;;;;5032044;28;20033;-71
2020/12/18 02:55:37;;;;;;;29.88;19.52;;;3.50;99.90;;;;;;5032090;28;20025;-71
2020/12/18 02:58:03;;;;;;;26.23;18.80;;;3.60;99.90;;;;;;5031489;28;20026;-70
2020/12/18 03:00:29;;;;;;;27.75;18.63;;;3.60;99.90;;;;;;5032208;28;20360;-70
2020/12/18 03:02:54;;;;;;;23.77;17.92;;;3.60;99.90;;;;;;5029494;28;20029;-71
2020/12/18 03:05:20;;;;;;;23.55;17.50;;;3.60;99.90;;;;;;5031775;28;20651;-71
2020/12/18 03:07:45;;;;;;;22.88;17.58;;;3.60;99.90;;;;;;5031355;28;20026;-69
2020/12/18 03:10:11;;;;;;;25.48;17.23;;;3.80;99.90;;;;;;5031558;28;20042;-70
2020/12/18 03:12:37;;;;;;;21.83;16.65;;;3.70;99.90;;;;;;5030927;28;20018;-69
2020/12/18 03:15:02;;;;;;;23.25;17.27;;;3.70;99.90;;;;;;5031213;28;20518;-71
2020/12/18 03:17:28;;;;;;;22.40;16.40;;;3.80;99.90;;;;;;5034669;28;20096;-71
2020/12/18 03:19:53;;;;;;;23.00;17.08;;;3.80;99.90;;;;;;5034096;28;20052;-71
2020/12/18 03:22:19;;;;;;;24.98;17.67;;;3.80;99.90;;;;;;5035077;28;20026;-69
2020/12/18 03:24:45;;;;;;;23.80;17.27;;;3.90;99.90;;;;;;5034635;28;20036;-71
2020/12/18 03:27:10;;;;;;;20.63;16.42;;;3.80;99.90;;;;;;5035248;28;20028;-71
2020/12/18 03:29:36;;;;;;;22.80;16.80;;;3.80;99.90;;;;;;5035250;28;20047;-71
2020/12/18 03:32:02;;;;;;;20.40;16.10;;;3.90;99.90;;;;;;5035052;28;20025;-70
2020/12/18 03:34:27;;;;;;;21.13;15.15;;;3.80;99.90;;;;;;5034440;28;20052;-71
2020/12/18 03:36:53;;;;;;;22.00;16.27;;;3.90;99.90;;;;;;5034965;28;20104;-72
2020/12/18 03:39:19;;;;;;;20.40;15.75;;;3.80;99.90;;;;;;5035178;28;20021;-71
2020/12/18 03:41:44;;;;;;;21.58;15.52;;;3.80;99.90;;;;;;5034984;28;20030;-71
2020/12/18 03:44:10;;;;;;;21.10;16.25;;;3.90;99.90;;;;;;5034231;28;20029;-71
2020/12/18 03:46:35;;;;;;;20.77;16.00;;;4.00;99.90;;;;;;5034761;28;20021;-71
2020/12/18 03:49:01;;;;;;;20.75;16.05;;;3.90;99.90;;;;;;5034726;28;20128;-70
2020/12/18 03:51:27;;;;;;;23.48;17.58;;;4.00;99.90;;;;;;5034541;28;20196;-71
2020/12/18 03:53:52;;;;;;;21.75;16.45;;;4.20;99.90;;;;;;5033979;28;20017;-72
2020/12/18 03:56:18;;;;;;;20.65;16.17;;;4.20;99.90;;;;;;5034517;28;20471;-69
2020/12/18 03:58:44;;;;;;;23.60;17.73;;;4.20;99.90;;;;;;5034859;28;20076;-70
2020/12/18 04:01:09;;;;;;;20.00;15.70;;;4.20;99.90;;;;;;5034342;28;20029;-70
2020/12/18 04:03:35;;;;;;;20.08;14.55;;;4.20;99.90;;;;;;5032547;28;20100;-70
2020/12/18 04:06:01;;;;;;;21.52;14.90;;;4.20;99.90;;;;;;5034327;28;20036;-70
2020/12/18 04:08:26;;;;;;;19.60;15.38;;;4.20;99.90;;;;;;5034566;28;20100;-70
2020/12/18 04:10:52;;;;;;;20.92;15.85;;;4.30;99.90;;;;;;5034736;28;20471;-72
2020/12/18 04:13:18;;;;;;;23.23;16.33;;;4.30;99.90;;;;;;5034076;28;20104;-70
2020/12/18 04:15:43;;;;;;;20.75;15.30;;;4.20;99.90;;;;;;5034469;28;20028;-72
2020/12/18 04:18:10;;;;;;;19.70;14.98;;;4.10;99.90;;;;;;5034283;28;20025;-69
2020/12/18 04:20:36;;;;;;;20.00;15.05;;;4.20;99.90;;;;;;5034532;28;20026;-70
2020/12/18 04:23:03;;;;;;;18.58;15.70;;;3.80;99.90;;;;;;5033828;28;20029;-70
2020/12/18 04:25:28;;;;;;;18.52;14.43;;;3.80;99.90;;;;;;5034263;28;20053;-72
2020/12/18 04:27:54;;;;;;;20.95;15.68;;;3.70;99.90;;;;;;5072437;22;20072;-69
2020/12/18 04:30:20;;;;;;;21.90;14.82;;;3.80;99.90;;;;;;5065006;28;20111;-69
2020/12/18 04:32:45;;;;;;;20.95;15.25;;;3.60;99.90;;;;;;5073240;28;20020;-70
2020/12/18 04:35:11;;;;;;;25.00;16.08;;;3.60;99.90;;;;;;5073628;28;20460;-69
2020/12/18 04:37:37;;;;;;;22.92;16.10;;;3.70;99.90;;;;;;5073700;28;20070;-69
2020/12/18 04:40:03;;;;;;;20.77;15.82;;;3.80;99.90;;;;;;5073790;28;20020;-69
2020/12/18 04:42:32;;;;;;;23.23;17.48;;;3.60;99.90;;;;;;5073358;28;20062;-69
2020/12/18 04:44:58;;;;;;;17.52;14.32;;;3.70;99.90;;;;;;5072754;28;20474;-69
2020/12/18 04:47:24;;;;;;;20.27;15.65;;;3.70;99.90;;;;;;5072339;28;20036;-69
2020/12/18 04:49:51;;;;;;;22.42;16.13;;;3.80;99.90;;;;;;5073582;28;20487;-70
2020/12/18 04:52:21;;;;;;;23.23;16.75;;;3.80;99.90;;;;;;5073505;28;20029;-69
2020/12/18 04:54:48;;;;;;;20.33;16.05;;;3.90;99.90;;;;;;5072750;28;20035;-69
2020/12/18 04:57:17;;;;;;;18.48;14.63;;;3.80;99.90;;;;;;5065539;28;20113;-69
2020/12/18 04:59:43;;;;;;;19.33;15.40;;;3.80;99.90;;;;;;5033266;28;20101;-69
2020/12/18 05:02:10;;;;;;;21.52;16.10;;;3.90;99.90;;;;;;5033596;28;20104;-69
2020/12/18 05:04:41;;;;;;;23.05;15.80;;;4.00;99.90;;;;;;5032652;28;20413;-69
2020/12/18 05:07:07;;;;;;;22.02;16.10;;;4.00;99.90;;;;;;5033281;28;20022;-69
2020/12/18 05:09:32;;;;;;;21.45;16.13;;;4.00;99.90;;;;;;5031984;28;20108;-69
2020/12/18 05:12:08;;;;;;;22.65;15.55;;;4.00;99.90;;;;;;5032883;28;20032;-69
2020/12/18 05:14:34;;;;;;;20.85;15.52;;;4.00;99.90;;;;;;5032529;28;20031;-69
2020/12/18 05:17:09;;;;;;;20.90;16.27;;;3.90;99.90;;;;;;5028742;28;20060;-70
2020/12/18 05:19:40;;;;;;;22.90;16.50;;;3.90;99.90;;;;;;5038014;28;20486;-70
2020/12/18 05:22:08;;;;;;;21.40;16.40;;;3.90;99.90;;;;;;5052445;28;20029;-70
2020/12/18 05:24:36;;;;;;;19.15;14.80;;;3.90;99.90;;;;;;5051505;28;20479;-70
2020/12/18 05:27:03;;;;;;;20.33;15.05;;;3.90;99.90;;;;;;5052188;28;20057;-70
2020/12/18 05:29:30;;;;;;;19.13;14.45;;;3.90;99.90;;;;;;5052537;28;20178;-70
2020/12/18 05:31:58;;;;;;;19.88;15.55;;;3.90;99.90;;;;;;5052479;28;20036;-69
2020/12/18 05:34:24;;;;;;;19.00;15.55;;;4.00;99.90;;;;;;5050163;28;20024;-70
2020/12/18 05:36:50;;;;;;;18.17;15.32;;;4.00;99.90;;;;;;5052403;28;20021;-69
2020/12/18 05:39:17;;;;;;;23.70;15.63;;;4.10;99.90;;;;;;5052159;28;20031;-69
2020/12/18 05:41:55;;;;;;;21.55;14.68;;;4.10;99.90;;;;;;5052423;28;20086;-70
2020/12/18 05:44:25;;;;;;;18.80;14.85;;;4.10;99.90;;;;;;5051748;28;20108;-69
2020/12/18 05:46:52;;;;;;;23.10;14.70;;;4.10;99.90;;;;;;5049338;28;20036;-70
2020/12/18 05:49:31;;;;;;;19.30;15.18;;;4.10;99.90;;;;;;5031935;28;20075;-70
2020/12/18 05:51:57;;;;;;;20.77;15.25;;;4.10;99.90;;;;;;5032048;28;20468;-71
2020/12/18 05:54:31;;;;;;;21.63;14.68;;;4.10;99.90;;;;;;5031395;28;20031;-70
2020/12/18 05:56:57;;;;;;;22.45;14.30;;;4.10;99.90;;;;;;5032332;28;20457;-68
2020/12/18 05:59:22;;;;;;;18.85;15.20;;;4.40;99.90;;;;;;5031550;28;20021;-68
2020/12/18 06:01:53;;;;;;;18.80;14.48;;;4.40;99.90;;;;;;5031856;28;20079;-68
2020/12/18 06:04:25;;;;;;;20.63;15.38;;;4.40;99.90;;;;;;5031109;28;20030;-68
2020/12/18 06:06:53;;;;;;;21.40;15.75;;;4.60;99.90;;;;;;5031919;28;20104;-69
2020/12/18 06:09:26;;;;;;;20.65;15.38;;;4.70;99.90;;;;;;5031434;28;20029;-68
2020/12/18 06:11:52;;;;;;;18.95;14.43;;;4.70;99.90;;;;;;5031757;28;20059;-70
2020/12/18 06:14:19;;;;;;;18.65;14.60;;;4.60;99.90;;;;;;5050111;28;20017;-69
2020/12/18 06:16:52;;;;;;;17.52;14.18;;;4.60;99.90;;;;;;5049462;28;20078;-69
2020/12/18 06:19:20;;;;;;;16.17;13.45;;;4.60;99.90;;;;;;5030964;28;20422;-69
2020/12/18 06:21:57;;;;;;;17.15;13.73;;;4.60;99.90;;;;;;5031863;28;20108;-68
2020/12/18 06:24:24;;;;;;;18.30;13.77;;;4.50;99.90;;;;;;5030788;28;20029;-68
2020/12/18 06:26:55;;;;;;;20.58;15.48;;;4.70;99.90;;;;;;5031694;28;20030;-69
2020/12/18 06:29:26;;;;;;;20.23;15.10;;;4.50;99.90;;;;;;5032114;28;20144;-70
2020/12/18 06:31:53;;;;;;;19.25;14.05;;;4.50;99.90;;;;;;5032325;28;20025;-69
2020/12/18 06:34:29;;;;;;;21.77;14.95;;;4.50;99.90;;;;;;5029424;28;20064;-69
2020/12/18 06:36:59;;;;;;;18.67;14.38;;;4.50;99.90;;;;;;5031624;28;20679;-69
2020/12/18 06:39:29;;;;;;;19.63;15.35;;;4.60;99.90;;;;;;5031232;28;20041;-69
2020/12/18 06:42:17;;;;;;;21.90;15.30;;;4.60;99.90;;;;;;5031469;28;20427;-69
2020/12/18 06:44:54;;;;;;;19.90;14.50;;;4.40;99.90;;;;;;5031136;28;20044;-70
2020/12/18 06:47:28;;;;;;;18.25;13.65;;;4.40;99.90;;;;;;5031270;28;20076;-68
2020/12/18 06:50:00;;;;;;;19.92;14.77;;;4.50;99.90;;;;;;5030341;28;20101;-70
2020/12/18 06:52:41;;;;;;;20.70;14.65;;;4.40;99.90;;;;;;5037513;28;20048;-70
2020/12/18 06:55:09;;;;;;;22.15;14.48;;;4.40;99.90;;;;;;5031195;28;20029;-70
2020/12/18 06:57:35;;;;;;;19.15;13.98;;;4.40;99.90;;;;;;5031350;28;20100;-69
2020/12/18 07:00:29;;;;;;;19.90;15.15;;;4.40;99.90;;;;;;5035735;28;20104;-70
2020/12/18 07:02:56;;;;;;;17.40;14.52;;;4.40;99.90;;;;;;5041192;28;20075;-71
2020/12/18 07:05:31;;;;;;;19.65;15.05;;;4.50;99.90;;;;;;5050795;28;20098;-70
2020/12/18 07:08:00;;;;;;;17.80;13.57;;;4.50;99.90;;;;;;5049458;28;20033;-68
2020/12/18 07:10:43;;;;;;;19.15;13.93;;;4.50;99.90;;;;;;5050608;28;20043;-70
2020/12/18 07:13:13;;;;;;;17.75;13.35;;;4.50;99.90;;;;;;5049908;28;20045;-71
2020/12/18 07:15:45;;;;;;;18.30;13.23;;;4.50;99.90;;;;;;5032351;28;20021;-71
2020/12/18 07:18:31;;;;;;;18.85;13.95;;;4.50;99.90;;;;;;5030935;28;20025;-70
2020/12/18 07:21:02;;;;;;;19.40;13.50;;;4.60;99.90;;;;;;5031384;28;20365;-72
2020/12/18 07:23:30;;;;;;;16.27;13.30;;;4.60;99.90;;;;;;5030291;28;20033;-72
2020/12/18 07:25:58;;;;;;;17.30;12.88;;;4.60;99.90;;;;;;5031313;28;20033;-71
2020/12/18 07:28:27;;;;;;;18.23;14.50;;;4.60;99.90;;;;;;5029398;28;20037;-71
2020/12/18 07:30:55;;;;;;;16.65;13.88;;;4.60;99.90;;;;;;5031014;28;20120;-71
2020/12/18 07:33:21;;;;;;;20.63;14.88;;;4.60;99.90;;;;;;5030418;28;20072;-72
2020/12/18 07:35:53;;;;;;;18.63;14.25;;;4.60;99.90;;;;;;5030775;28;20029;-72
2020/12/18 07:38:32;;;;;;;18.70;15.10;;;4.50;99.90;;;;;;5030444;28;20048;-71
2020/12/18 07:41:00;;;;;;;17.50;13.75;;;4.60;99.90;;;;;;5031383;28;20033;-70
2020/12/18 07:43:28;;;;;;;17.90;14.30;;;4.50;99.90;;;;;;5038618;28;20442;-70
2020/12/18 07:45:56;;;;;;;19.85;15.10;;;4.60;99.90;;;;;;5049424;28;20037;-71
2020/12/18 07:48:26;;;;;;;18.67;14.10;;;4.60;99.90;;;;;;5034910;28;20033;-71
2020/12/18 07:51:02;;;;;;;19.00;14.43;;;4.70;99.90;;;;;;5030659;28;20036;-69
2020/12/18 07:53:29;;;;;;;17.73;14.35;;;4.60;99.90;;;;;;5030197;28;20026;-70
2020/12/18 07:56:00;;;;;;;17.13;13.77;;;4.60;99.90;;;;;;5040497;28;20146;-70
2020/12/18 07:58:27;;;;;;;17.88;13.88;;;4.60;99.90;;;;;;5050079;28;20489;-71
2020/12/18 08:01:05;;;;;;;20.23;14.25;;;4.70;99.90;;;;;;5050721;28;20060;-71
2020/12/18 08:03:32;;;;;;;18.73;13.80;;;4.70;99.90;;;;;;5051436;28;20025;-71
2020/12/18 08:05:58;;;;;;;15.32;11.93;;;4.60;99.90;;;;;;5054215;28;20029;-70
2020/12/18 08:08:24;;;;;;;12.68;10.98;;;4.70;99.90;;;;;;5052603;28;20475;-70
2020/12/18 08:10:51;;;;;;;17.88;12.55;;;4.70;99.90;;;;;;5054250;28;20038;-70
2020/12/18 08:13:31;;;;;;;19.60;13.18;;;4.90;99.90;;;;;;5053147;28;20645;-73
2020/12/18 08:16:10;;;;;;;17.80;12.48;;;5.00;99.90;;;;;;5054615;28;20123;-71
2020/12/18 08:18:37;;;;;;;16.13;11.50;;;5.10;99.90;;;;;;5053984;28;20124;-71
2020/12/18 08:21:04;;;;;;;14.00;12.23;;;5.10;99.90;;;;;;5043927;28;20116;-70
2020/12/18 08:23:32;;;;;;;15.75;12.63;;;5.20;99.90;;;;;;5049208;28;20045;-71
2020/12/18 08:25:59;;;;;;;15.90;12.45;;;5.20;99.90;;;;;;5054323;28;20036;-70
2020/12/18 08:28:28;;;;;;;12.80;10.88;;;5.30;99.90;;;;;;5054354;28;20036;-71
2020/12/18 08:30:55;;;;;;;16.90;13.10;;;5.30;99.90;;;;;;5053649;28;20677;-71
2020/12/18 08:33:21;;;;;;;17.27;11.95;;;5.50;99.90;;;;;;5051608;28;20064;-71
2020/12/18 08:35:52;;;;;;;14.25;11.48;;;5.60;99.90;;;;;;5053826;28;20271;-70
2020/12/18 08:38:17;;;;;;;13.73;10.85;;;5.80;99.90;;;;;;5054291;28;20025;-72
2020/12/18 08:40:43;;;;;;;14.18;11.63;;;5.90;99.90;;;;;;5063818;28;20036;-72
2020/12/18 08:43:12;;;;;;;15.32;11.60;;;5.90;99.90;;;;;;5061498;28;20394;-72
2020/12/18 08:45:42;;;;;;;14.90;11.18;;;6.20;99.90;;;;;;5062813;28;20513;-70
2020/12/18 08:48:09;;;;;;;11.93;10.23;;;6.50;99.90;;;;;;5063450;28;20033;-71
2020/12/18 08:50:35;;;;;;;15.63;11.90;;;6.80;99.90;;;;;;5065536;28;20048;-72
2020/12/18 08:53:12;;;;;;;16.90;12.48;;;7.20;99.90;;;;;;5061877;28;20018;-72
2020/12/18 08:55:38;;;;;;;15.90;12.50;;;7.30;99.90;;;;;;5062733;28;20087;-71
2020/12/18 08:58:08;;;;;;;14.25;12.00;;;7.80;99.90;;;;;;5055878;28;20022;-71
2020/12/18 09:00:34;;;;;;;15.88;12.18;;;8.10;99.90;;;;;;5053418;28;20398;-72
2020/12/18 09:03:03;;;;;;;16.02;12.23;;;8.40;99.90;;;;;;5052523;28;20025;-71
2020/12/18 09:05:34;;;;;;;14.45;10.75;;;8.60;99.90;;;;;;5051635;28;20381;-71
2020/12/18 09:08:07;;;;;;;11.85;10.52;;;8.90;99.90;;;;;;5051661;28;20032;-72
2020/12/18 09:10:40;;;;;;;11.15;8.98;;;9.20;99.90;;;;;;5052996;28;20036;-72
2020/12/18 09:13:12;;;;;;;10.60;9.50;;;8.80;99.90;;;;;;5051817;28;20013;-70
2020/12/18 09:15:38;;;;;;;12.57;9.25;;;9.30;99.90;;;;;;5052465;28;20029;-71
2020/12/18 09:18:06;;;;;;;10.50;9.45;;;10.00;99.90;;;;;;5039761;28;20017;-71
2020/12/18 09:20:52;;;;;;;10.10;8.35;;;10.70;99.90;;;;;;5032870;28;20048;-71
2020/12/18 09:23:30;;;;;;;11.10;8.05;;;11.30;99.90;;;;;;5031833;28;20057;-71
2020/12/18 09:25:57;;;;;;;9.18;8.18;;;11.80;99.90;;;;;;5032911;28;20140;-71
2020/12/18 09:28:24;;;;;;;11.85;8.60;;;12.10;99.90;;;;;;5032372;28;20033;-70
2020/12/18 09:30:54;;;;;;;8.88;7.60;;;12.50;99.90;;;;;;5032651;28;20112;-71
2020/12/18 09:33:23;;;;;;;8.55;7.75;;;13.10;99.90;;;;;;5031998;28;20032;-72
2020/12/18 09:35:50;;;;;;;9.20;7.20;;;13.40;99.90;;;;;;5032787;28;20076;-73
2020/12/18 09:38:24;;;;;;;8.80;7.85;;;13.50;99.90;;;;;;5032958;28;20028;-71
2020/12/18 09:40:51;;;;;;;7.75;7.05;;;15.60;99.90;;;;;;5032902;28;20152;-71
2020/12/18 09:43:17;;;;;;;9.93;7.72;;;17.30;99.50;;;;;;5030217;28;20029;-71
2020/12/18 09:45:43;;;;;;;9.18;7.63;;;18.20;94.30;;;;;;5032440;28;20106;-71
2020/12/18 09:48:08;;;;;;;8.65;7.40;;;18.00;95.30;;;;;;5032455;28;20030;-72
2020/12/18 09:50:34;;;;;;;8.15;7.25;;;18.40;92.90;;;;;;5032757;28;20120;-71
2020/12/18 09:53:00;;;;;;;7.68;6.40;;;19.70;91.10;;;;;;5032068;28;20025;-72
2020/12/18 09:55:25;;;;;;;8.43;7.03;;;20.20;86.60;;;;;;5032161;28;20519;-71
2020/12/18 09:57:51;;;;;;;8.23;6.63;;;20.40;84.20;;;;;;5032524;28;20064;-73
2020/12/18 10:00:17;;;;;;;7.35;6.65;;;20.20;83.70;;;;;;5031394;28;20033;-72
2020/12/18 10:02:43;;;;;;;7.15;6.47;;;19.00;85.30;;;;;;5032157;28;20029;-69
2020/12/18 10:05:08;;;;;;;7.03;6.32;;;19.30;84.70;;;;;;5032833;28;20075;-70
2020/12/18 10:07:34;;;;;;;7.65;6.30;;;18.80;85.30;;;;;;5030876;28;20025;-70
2020/12/18 10:10:00;;;;;;;7.10;6.00;;;18.00;85.30;;;;;;5031903;28;20026;-71
2020/12/18 10:12:26;;;;;;;8.45;6.40;;;16.90;93.00;;;;;;5032009;28;20108;-72
2020/12/18 10:14:51;;;;;;;6.57;5.97;;;17.90;91.30;;;;;;5035908;28;20017;-73
2020/12/18 10:17:17;;;;;;;8.13;7.03;;;20.40;82.60;;;;;;5045678;28;20117;-74
2020/12/18 10:19:43;;;;;;;8.63;5.88;;;20.80;80.30;;;;;;5031987;28;20017;-74
2020/12/18 10:22:08;;;;;;;6.57;5.97;;;20.10;78.50;;;;;;5032442;28;20100;-74
2020/12/18 10:24:34;;;;;;;6.15;5.22;;;22.40;74.20;;;;;;5031191;28;20053;-72
2020/12/18 10:27:00;;;;;;;6.22;5.63;;;23.10;67.70;;;;;;5030814;28;20151;-72
2020/12/18 10:29:26;;;;;;;6.53;5.93;;;24.30;66.00;;;;;;5031962;28;20522;-74
2020/12/18 10:31:58;;;;;;;6.35;5.85;;;24.80;63.00;;;;;;5032573;28;20025;-71
2020/12/18 10:34:24;;;;;;;;;;;25.40;61.60;;;;;;5031995;28;20022;-72
2020/12/18 10:36:51;;;;;;;6.30;5.80;;;25.70;58.60;;;;;;5031948;28;19917;-74
2020/12/18 10:39:17;;;;;;;6.45;5.70;;;25.20;57.50;;;;;;5031917;28;20025;-74
2020/12/18 10:41:43;;;;;;;6.18;5.68;;;24.20;59.60;;;;;;5031933;28;20013;-73
2020/12/18 10:44:09;;;;;;;6.00;5.43;;;25.00;58.60;;;;;;5029032;28;20067;-74
2020/12/18 10:46:35;;;;;;;6.38;5.88;;;25.70;57.30;;;;;;5031569;28;20047;-74
2020/12/18 10:49:01;;;;;;;5.97;5.38;;;25.20;56.80;;;;;;5031803;28;20033;-73
2020/12/18 10:51:26;;;;;;;6.70;5.90;;;25.50;57.00;;;;;;5031917;28;20022;-72
2020/12/18 10:53:52;;;;;;;6.50;5.90;;;24.60;57.30;;;;;;5030974;28;20483;-72
2020/12/18 10:56:18;;;;;;;7.72;6.30;;;24.50;58.40;;;;;;5030549;28;20036;-71
2020/12/18 10:58:44;;;;;;;6.50;5.93;;;24.00;58.40;;;;;;5030138;28;20107;-73
2020/12/18 11:01:09;;;;;;;6.65;5.57;;;22.90;60.30;;;;;;5031358;28;20036;-72
2020/12/18 11:03:35;;;;;;;6.78;6.05;;;22.80;61.20;;;;;;5035190;28;20029;-72
2020/12/18 11:06:04;;;;;;;6.15;5.65;;;22.30;63.70;;;;;;5033886;28;20103;-72
2020/12/18 11:08:30;;;;;;;6.78;6.20;;;25.00;59.20;;;;;;5031298;28;20025;-72
2020/12/18 11:10:56;;;;;;;6.15;5.63;;;25.80;57.00;;;;;;5030332;28;20395;-73
2020/12/18 11:13:22;;;;;;;6.10;5.60;;;26.00;57.30;;;;;;5030435;28;20027;-69
2020/12/18 11:15:48;;;;;;;7.07;6.35;;;26.50;55.60;;;;;;5042529;28;20100;-71
2020/12/18 11:18:14;;;;;;;5.97;5.38;;;27.10;53.90;;;;;;5046454;28;20025;-69
2020/12/18 11:20:39;;;;;;;5.80;5.30;;;26.50;54.00;;;;;;5050955;28;20394;-71
2020/12/18 11:23:05;;;;;;;5.93;5.32;;;26.60;53.90;;;;;;5050440;28;20610;-71
2020/12/18 11:25:31;;;;;;;8.00;5.90;;;26.90;53.20;;;;;;5051326;28;20566;-71
2020/12/18 11:27:56;;;;;;;6.47;5.20;;;27.30;52.50;;;;;;5046434;28;20395;-71
2020/12/18 11:30:22;;;;;;;8.38;5.55;;;25.60;53.20;;;;;;5031405;28;20392;-70
2020/12/18 11:32:48;;;;;;;8.77;6.43;;;26.20;54.50;;;;;;5030660;28;20087;-70
2020/12/18 11:35:13;;;;;;;7.68;5.20;;;26.90;52.80;;;;;;5031220;28;20081;-70
2020/12/18 11:37:39;;;;;;;7.35;6.20;;;27.00;52.90;;;;;;5033045;28;20650;-72
2020/12/18 11:40:05;;;;;;;7.07;5.47;;;25.50;53.90;;;;;;5035166;28;20048;-73
2020/12/18 11:42:31;;;;;;;6.70;5.90;;;26.50;53.60;;;;;;5035023;28;20040;-73
2020/12/18 11:44:56;;;;;;;9.20;6.45;;;27.10;52.60;;;;;;5034163;28;20021;-72
2020/12/18 11:47:24;;;;;;;10.20;6.07;;;28.00;51.50;;;;;;5034874;28;20025;-73
2020/12/18 11:49:49;;;;;;;9.93;6.47;;;28.30;50.30;;;;;;5033584;28;20120;-72
2020/12/18 11:52:15;;;;;;;6.00;5.43;;;27.60;51.00;;;;;;5034888;28;20120;-72
2020/12/18 11:54:41;;;;;;;7.28;6.00;;;28.70;50.30;;;;;;5034037;28;20021;-72
2020/12/18 11:57:07;;;;;;;6.93;6.22;;;29.30;48.50;;;;;;5046667;28;20017;-73
2020/12/18 11:59:32;;;;;;;7.30;5.65;;;29.10;48.10;;;;;;5053699;28;20098;-72
2020/12/18 12:01:58;;;;;;;6.50;5.90;;;27.40;51.00;;;;;;5053328;28;20021;-72
2020/12/18 12:04:24;;;;;;;5.57;5.18;;;27.00;50.40;;;;;;5053933;28;20108;-71
2020/12/18 12:06:49;;;;;;;6.55;5.05;;;26.30;52.50;;;;;;5052988;28;20079;-72
2020/12/18 12:09:15;;;;;;;6.32;5.40;;;27.70;50.20;;;;;;5054687;28;20047;-72
2020/12/18 12:11:42;;;;;;;6.53;5.82;;;27.80;50.00;;;;;;5054674;28;20029;-73
2020/12/18 12:14:08;;;;;;;7.50;5.30;;;27.20;51.50;;;;;;5053518;28;20029;-73
2020/12/18 12:16:35;;;;;;;7.55;5.78;;;26.10;53.10;;;;;;5054069;28;20017;-73
2020/12/18 12:19:04;;;;;;;5.95;5.45;;;24.20;55.80;;;;;;5054477;28;20108;-72
2020/12/18 12:21:37;;;;;;;7.43;5.30;;;22.60;59.40;;;;;;5056272;28;20574;-73
2020/12/18 12:24:04;;;;;;;6.07;5.53;;;21.50;63.60;;;;;;5054129;28;20029;-72
2020/12/18 12:26:29;;;;;;;8.55;5.10;;;21.50;64.50;;;;;;5054331;28;20411;-73
2020/12/18 12:28:56;;;;;;;5.13;4.63;;;21.60;63.70;;;;;;5053993;28;20040;-73
2020/12/18 12:31:22;;;;;;;5.72;5.13;;;20.80;65.40;;;;;;5054057;28;20076;-71
2020/12/18 12:33:48;;;;;;;6.88;4.45;;;20.50;67.50;;;;;;5038178;28;20021;-71
2020/12/18 12:36:18;;;;;;;5.72;4.65;;;21.20;69.80;;;;;;5047892;28;20426;-73
2020/12/18 12:38:44;;;;;;;9.65;4.90;;;22.70;63.20;;;;;;5053079;28;20027;-73
2020/12/18 12:41:11;;;;;;;4.63;4.22;;;24.30;59.50;;;;;;5053850;28;20108;-70
2020/12/18 12:43:36;;;;;;;7.32;4.78;;;25.30;57.10;;;;;;5052051;28;20110;-72